KCAOKSAF

Guest
Details From KCAO - Clayton Muni Airpark
To KSAF - Santa Fe Muni
Flight Number -
Tags Generated
Created
Modified
Stats Distance 152 nm / 281 km
Max Altitude 0 ft / 0 m
Waypoints 2
Social Downloads 0
Likes 0
Share VATSIM

Download

Looking for another format? Having issues loading an existing format? Contact us
Advertisement - Login to hide

Notes

Generated

Route

KCAO KSAF

ID Type Via Altitude Latitude Longitude Leg Dist Tot Dist Heading (true) Name
O KCAO APT - 0 ft / 0 m 36.44965˚ -103.15135˚ - 0 nm - CLAYTON MUNI AIRPARK
O KSAF APT - 0 ft / 0 m 35.62056˚ -106.10139˚ 151 nm 151 nm 252° / 250° -

Altitude Profile

Advertisement - Login to hide

KCAO

Details ICAO KCAO
Name CLAYTON MUNI AIRPARK
Region United States
Timezone America/Denver (UTC-7.0)
Stats Elevation 4,965 ft / 1,513 m (AMSL)
Location 36.446126° -103.149282°
Runways 2
Magnetic Variation 7.002° E

METAR

KCAO 180055Z AUTO 00000KT 10SM CLR M03/M07 A2998 RMK AO2 SLP177 T10281067 $

Decode

TAF

Not found

Departure Runways

ID Width Length Bearing (true) Bearing (mag) Surface Threshold Offset Overrun Length
02 75 ft / 23 m 6,308 ft / 1,923 m 30.11° 23.11° Asphalt 0 ft / 0 m 0 ft / 0 m
12 60 ft / 18 m 4,098 ft / 1,249 m 130.33° 123.33° Asphalt 0 ft / 0 m 0 ft / 0 m
20 75 ft / 23 m 6,308 ft / 1,923 m 210.12° 203.12° Asphalt 0 ft / 0 m 0 ft / 0 m
30 60 ft / 18 m 4,098 ft / 1,249 m 310.34° 303.34° Asphalt 0 ft / 0 m 0 ft / 0 m

KSAF

Details ICAO KSAF (SAF)
Name Santa Fe Muni
Region United States
Timezone America/Denver (UTC-7.0)
Stats Elevation 6,348 ft / 1,935 m (AMSL)
Location 35.617038° -106.089570°
Runways 3
Magnetic Variation 8.363° E

METAR

KSAF 180053Z 00000KT 10SM CLR 04/M12 A3002 RMK AO2 SLP160 T00391122

Decode

TAF

KSAF 172334Z 1800/1824 23008KT P6SM SKC FM180400 36006KT P6SM SCT070 FM181300 36011KT P6SM FEW035 SCT060 FM181900 28005KT P6SM FEW060

Decode

Destination Runways

ID Width Length Bearing (true) Bearing (mag) Surface Threshold Offset Overrun Length
02 150 ft / 46 m 8,347 ft / 2,544 m 34.99° 26.63° Asphalt 0 ft / 0 m 0 ft / 0 m
10 75 ft / 23 m 6,292 ft / 1,918 m 111.76° 103.40° Asphalt 0 ft / 0 m 0 ft / 0 m
15 150 ft / 46 m 6,319 ft / 1,926 m 166.75° 158.39° Asphalt 0 ft / 0 m 0 ft / 0 m
20 150 ft / 46 m 8,347 ft / 2,544 m 215.00° 206.64° Asphalt 0 ft / 0 m 0 ft / 0 m
28 75 ft / 23 m 6,292 ft / 1,918 m 291.77° 283.41° Asphalt 0 ft / 0 m 0 ft / 0 m
33 150 ft / 46 m 6,319 ft / 1,926 m 346.75° 338.39° Asphalt 0 ft / 0 m 0 ft / 0 m

Approach Navaids

Runway Type Ident Frequency Range Bearing (true) Bearing (mag) Slope Elevation
02 Localiser ISGB 111.70 MHz 18 nm / 33 km 35.00° 26.64° - 6,322 ft / 1,927 m (AMSL)
02 Glidescope ISGB 111.70 MHz 10 nm / 19 km 34.99° 26.63° 3.00° 6,285 ft / 1,916 m (AMSL)
02 DME ISGB 111.70 MHz 18 nm / 33 km - - - 6,326 ft / 1,928 m (AMSL)